Time;durP1;ratioP1;P1;durP2;ratioP2;P2;SDS_P1;SDS_P2;PMS_P1;PMS_P2;Temp;Humidity;BMP_temperature;BMP_pressure;BME280_temperature;BME280_humidity;BME280_pressure;Samples;Min_cycle;Max_cycle;Signal;HPM_P1;HPM_P2
2021/12/08 00:00:40;;;;;;;1.97;0.80;;;;;;;4.30;84.95;97037.22;5060724;28;20222;-57
2021/12/08 00:03:10;;;;;;;1.57;0.90;;;;;;;4.29;85.29;97045.94;5063377;28;20195;-56
2021/12/08 00:05:37;;;;;;;2.67;0.90;;;;;;;4.21;85.81;97041.53;5061858;28;20266;-58
2021/12/08 00:08:06;;;;;;;4.17;1.27;;;;;;;4.12;86.74;97045.00;5059644;28;20218;-57
2021/12/08 00:13:02;;;;;;;3.53;1.17;;;;;;;4.10;87.24;97046.94;5060443;28;20213;-56
2021/12/08 00:13:40;;;;;;;7.27;3.07;;;;;;;4.10;86.28;97046.94;5061641;28;20183;-57
2021/12/08 00:16:10;;;;;;;8.83;3.80;;;;;;;3.92;85.48;97049.50;5062444;28;20419;-56
2021/12/08 00:18:44;;;;;;;7.90;4.30;;;;;;;3.61;84.22;97053.25;5061231;28;20195;-55
2021/12/08 00:21:11;;;;;;;10.57;4.00;;;;;;;3.50;86.45;97061.19;5060988;28;20291;-57
2021/12/08 00:23:38;;;;;;;8.80;4.83;;;;;;;3.34;87.88;97052.31;5062455;28;20303;-57
2021/12/08 00:26:05;;;;;;;9.53;5.17;;;;;;;3.23;86.69;97061.06;5063078;28;20270;-54
2021/12/08 00:28:32;;;;;;;10.03;5.33;;;;;;;3.13;88.06;97070.59;5060799;28;20661;-56
2021/12/08 00:31:03;;;;;;;12.87;6.37;;;;;;;3.04;86.50;97071.47;5061368;28;20215;-57
2021/12/08 00:33:31;;;;;;;11.73;5.40;;;;;;;2.93;85.85;97070.69;5063023;28;20183;-56
2021/12/08 00:35:59;;;;;;;9.70;5.27;;;;;;;2.88;86.90;97077.22;5061507;28;20191;-57
2021/12/08 00:38:26;;;;;;;11.40;5.10;;;;;;;2.83;86.54;97079.41;5061200;28;20544;-56
2021/12/08 00:40:54;;;;;;;10.03;5.10;;;;;;;2.80;87.08;97083.88;5059987;28;20704;-55
2021/12/08 00:43:21;;;;;;;11.82;7.28;;;;;;;2.77;89.61;97086.75;5060608;28;20517;-56
2021/12/08 00:45:49;;;;;;;13.53;7.27;;;;;;;2.56;90.94;97086.94;5062848;28;20190;-56
2021/12/08 00:48:18;;;;;;;14.03;6.17;;;;;;;2.48;90.67;97081.66;5062080;28;20253;-56
2021/12/08 00:50:44;;;;;;;11.87;6.53;;;;;;;2.51;90.86;97089.91;5059930;28;20202;-54
2021/12/08 00:53:11;;;;;;;13.77;6.50;;;;;;;2.47;90.83;97088.53;5062885;28;20262;-56
2021/12/08 00:55:39;;;;;;;13.43;6.90;;;;;;;2.35;90.32;97082.75;5061396;28;20571;-56
2021/12/08 00:58:06;;;;;;;11.20;6.13;;;;;;;2.33;90.65;97078.66;5060601;28;20663;-55
2021/12/08 01:00:36;;;;;;;11.77;6.20;;;;;;;2.28;90.83;97081.66;5063527;28;20392;-55
2021/12/08 01:03:04;;;;;;;12.97;6.77;;;;;;;2.28;92.24;97085.97;5065732;28;20200;-57
2021/12/08 01:05:36;;;;;;;13.80;7.13;;;;;;;2.26;94.30;97081.00;5059905;28;20270;-54
2021/12/08 01:08:04;;;;;;;12.73;7.00;;;;;;;2.28;93.55;97088.56;5055181;28;20282;-56
2021/12/08 01:10:31;;;;;;;14.00;6.80;;;;;;;2.25;94.02;97091.41;5052951;28;20211;-56
2021/12/08 01:12:58;;;;;;;14.70;7.37;;;;;;;2.26;94.17;97091.28;5059121;28;20195;-57
2021/12/08 01:15:26;;;;;;;17.07;7.60;;;;;;;2.21;94.79;97093.44;5062158;28;20604;-56
2021/12/08 01:17:53;;;;;;;16.87;7.87;;;;;;;2.28;95.28;97096.28;5060705;28;20195;-57
2021/12/08 01:20:20;;;;;;;15.90;7.80;;;;;;;2.26;94.52;97093.03;5059874;28;20207;-56
2021/12/08 01:22:48;;;;;;;12.17;7.63;;;;;;;2.26;95.73;97095.59;5059608;28;20205;-56
2021/12/08 01:25:15;;;;;;;10.17;6.70;;;;;;;2.25;95.95;97117.97;5057490;28;20183;-55
2021/12/08 01:27:42;;;;;;;16.13;7.80;;;;;;;2.19;95.46;97128.81;5063343;28;20305;-54
2021/12/08 01:30:11;;;;;;;10.93;6.77;;;;;;;2.18;96.07;97128.00;5063469;28;20242;-55
2021/12/08 01:32:38;;;;;;;13.13;7.07;;;;;;;2.16;96.39;97137.59;5065013;28;20222;-57
2021/12/08 01:35:07;;;;;;;14.67;6.50;;;;;;;2.20;94.85;97135.59;5060079;28;20671;-55
2021/12/08 01:37:34;;;;;;;11.20;7.10;;;;;;;2.20;94.13;97135.59;5060795;28;20211;-56
2021/12/08 01:40:04;;;;;;;10.87;6.37;;;;;;;2.15;94.92;97150.63;5061303;28;20210;-55
2021/12/08 01:42:35;;;;;;;12.30;7.35;;;;;;;2.17;95.89;97159.81;5059634;28;20514;-55
2021/12/08 01:47:48;;;;;;;10.27;6.63;;;;;;;2.15;96.07;97164.28;5060247;28;20210;-53
2021/12/08 01:50:15;;;;;;;11.73;5.60;;;;;;;2.22;97.73;97149.94;5063544;28;20816;-55
2021/12/08 01:52:41;;;;;;;13.13;7.27;;;;;;;2.26;97.30;97135.06;5062034;28;20182;-55
2021/12/08 01:55:10;;;;;;;11.20;5.83;;;;;;;2.31;97.47;97107.13;5060614;28;20186;-55
2021/12/08 01:57:38;;;;;;;7.70;5.23;;;;;;;2.36;96.70;97079.22;5059057;28;20183;-54
2021/12/08 02:00:09;;;;;;;7.07;4.87;;;;;;;2.33;97.89;97061.47;5057612;28;20213;-55
2021/12/08 02:02:36;;;;;;;6.77;4.43;;;;;;;2.40;97.94;97030.81;5059156;28;20183;-55
2021/12/08 02:05:05;;;;;;;9.33;4.20;;;;;;;2.51;98.59;97045.31;5059118;28;20286;-56
2021/12/08 02:07:33;;;;;;;10.30;4.93;;;;;;;2.53;99.40;97034.84;5059159;28;20939;-55
2021/12/08 02:10:00;;;;;;;6.60;4.60;;;;;;;2.54;99.11;97041.63;5055250;28;20207;-55
2021/12/08 02:12:29;;;;;;;10.07;5.30;;;;;;;2.52;100.00;97034.06;5058418;28;20203;-55
2021/12/08 02:14:59;;;;;;;8.47;5.33;;;;;;;2.49;99.83;97021.47;5058511;28;20194;-54
2021/12/08 02:17:26;;;;;;;7.83;3.80;;;;;;;2.53;100.00;97004.78;5059091;28;20195;-54
2021/12/08 02:19:53;;;;;;;5.20;2.63;;;;;;;2.70;100.00;97013.53;5059494;28;20997;-54
2021/12/08 02:22:21;;;;;;;2.00;1.40;;;;;;;2.94;100.00;96997.56;5061180;28;20183;-55
2021/12/08 02:24:48;;;;;;;1.77;0.90;;;;;;;3.10;100.00;97012.41;5060690;28;20195;-54
2021/12/08 02:27:15;;;;;;;2.73;1.10;;;;;;;3.32;100.00;97001.84;5058179;28;20270;-51
2021/12/08 02:29:49;;;;;;;1.63;0.80;;;;;;;3.50;100.00;97000.09;5054460;28;20209;-54
2021/12/08 02:32:33;;;;;;;1.40;0.70;;;;;;;3.67;100.00;97000.25;5060821;28;20190;-52
2021/12/08 02:48:44;;;;;;;1.03;0.50;;;;;;;4.95;98.26;97001.59;5073307;28;20186;-54
2021/12/08 02:51:11;;;;;;;1.70;0.50;;;;;;;5.14;96.30;96991.00;5073071;28;20758;-53
2021/12/08 02:53:39;;;;;;;0.93;0.40;;;;;;;5.18;95.84;96999.25;5073713;28;20190;-55
2021/12/08 02:56:06;;;;;;;2.07;0.60;;;;;;;5.31;95.41;96996.19;5073912;28;20198;-53
2021/12/08 02:58:33;;;;;;;1.20;0.40;;;;;;;5.45;94.51;96997.38;5074077;28;20182;-56
2021/12/08 03:01:04;;;;;;;1.30;0.60;;;;;;;5.44;94.01;97004.31;5053672;28;20273;-54
2021/12/08 03:03:31;;;;;;;0.63;0.50;;;;;;;5.42;94.74;97006.25;5068392;28;20237;-55
2021/12/08 03:05:59;;;;;;;2.03;0.50;;;;;;;5.45;94.14;96999.97;5074113;28;20241;-52
2021/12/08 03:08:26;;;;;;;0.77;0.50;;;;;;;5.56;93.22;96996.25;5073805;28;20198;-55
2021/12/08 03:10:55;;;;;;;2.20;0.50;;;;;;;5.65;92.57;96999.69;5065867;28;20626;-55
2021/12/08 03:13:30;;;;;;;0.83;0.50;;;;;;;5.63;93.16;97006.78;5070062;28;20237;-57
2021/12/08 03:16:11;;;;;;;1.00;0.43;;;;;;;5.63;92.82;97005.00;5073608;28;20186;-56
2021/12/08 03:18:39;;;;;;;1.00;0.50;;;;;;;5.64;92.72;97009.22;4991579;28;20283;-52
2021/12/08 03:21:09;;;;;;;1.30;0.63;;;;;;;5.63;92.85;97006.78;4990769;28;20792;-52
2021/12/08 03:23:49;;;;;;;1.07;0.60;;;;;;;5.68;92.79;97013.09;4991356;28;20201;-52
2021/12/08 03:26:19;;;;;;;1.53;0.70;;;;;;;5.58;93.88;97015.03;4984912;28;20201;-53
2021/12/08 03:29:00;;;;;;;1.87;0.53;;;;;;;5.56;94.99;97014.38;4988173;28;20675;-53
2021/12/08 03:31:30;;;;;;;1.77;1.37;;;;;;;5.52;93.91;97013.91;4971651;28;20695;-52
2021/12/08 03:33:57;;;;;;;2.47;0.60;;;;;;;5.60;94.04;97018.25;4971451;28;20198;-52
2021/12/08 03:36:24;;;;;;;1.80;0.50;;;;;;;5.59;93.80;97019.22;4971659;28;20206;-56
2021/12/08 03:38:51;;;;;;;2.80;0.50;;;;;;;5.61;93.02;97015.53;4971806;28;20205;-54
2021/12/08 03:41:19;;;;;;;2.40;0.70;;;;;;;5.63;92.79;97023.13;4970389;28;20228;-55
2021/12/08 03:43:45;;;;;;;2.27;0.47;;;;;;;5.66;93.06;97034.94;4989635;28;20201;-54
2021/12/08 03:46:16;;;;;;;2.77;0.77;;;;;;;5.65;93.80;97034.13;4991025;28;20271;-52
2021/12/08 03:48:47;;;;;;;0.60;0.50;;;;;;;5.64;93.90;97037.69;4990685;28;20202;-53
2021/12/08 03:51:14;;;;;;;1.83;0.50;;;;;;;5.66;93.92;97051.28;4990289;28;20213;-55
2021/12/08 03:53:41;;;;;;;1.60;0.60;;;;;;;5.69;93.91;97052.75;4990783;28;20215;-55
2021/12/08 03:56:08;;;;;;;1.80;0.70;;;;;;;5.65;94.62;97059.22;5039974;28;20280;-54
2021/12/08 03:58:36;;;;;;;1.00;0.60;;;;;;;5.60;94.98;97060.50;5072117;28;20517;-52
2021/12/08 04:01:06;;;;;;;4.00;2.07;;;;;;;5.60;93.47;97067.44;5071610;28;20276;-54
2021/12/08 04:03:34;;;;;;;4.57;2.10;;;;;;;5.43;93.94;97075.16;5072117;28;20183;-54
2021/12/08 04:06:06;;;;;;;2.97;1.70;;;;;;;5.28;93.90;97067.19;5072163;28;20189;-53
2021/12/08 04:08:40;;;;;;;2.83;1.80;;;;;;;5.11;96.88;97071.50;5072359;28;20648;-54
2021/12/08 04:11:08;;;;;;;5.20;2.10;;;;;;;5.16;97.82;97092.53;5067792;28;20212;-55
2021/12/08 04:13:42;;;;;;;4.83;2.20;;;;;;;4.95;95.95;97074.00;5057022;28;20196;-56
2021/12/08 04:16:11;;;;;;;3.13;2.23;;;;;;;4.82;97.64;97080.38;5052234;28;20191;-53
2021/12/08 04:18:38;;;;;;;3.00;2.43;;;;;;;4.72;98.05;97096.00;5051664;28;20196;-52
2021/12/08 04:21:08;;;;;;;5.13;1.43;;;;;;;4.73;99.57;97087.28;5051148;28;20218;-55
2021/12/08 04:23:38;;;;;;;2.23;1.43;;;;;;;4.88;100.00;97095.28;5051954;28;20191;-55
2021/12/08 04:26:09;;;;;;;2.87;1.50;;;;;;;5.00;100.00;97084.69;5053017;28;20905;-56
2021/12/08 04:28:38;;;;;;;2.77;1.23;;;;;;;5.12;99.34;97077.47;5070798;28;20190;-55
2021/12/08 04:31:10;;;;;;;3.37;0.90;;;;;;;5.17;100.00;97063.13;5070854;28;20207;-56
2021/12/08 04:33:38;;;;;;;2.80;1.03;;;;;;;5.19;99.45;97068.13;5071770;28;20186;-53
2021/12/08 04:36:06;;;;;;;2.83;1.00;;;;;;;5.24;98.38;97059.91;5071681;28;20183;-53
2021/12/08 04:38:39;;;;;;;1.80;1.03;;;;;;;5.27;97.36;97057.00;5071962;28;20224;-53
2021/12/08 04:41:10;;;;;;;1.13;0.63;;;;;;;5.24;94.78;97055.53;5070619;28;20214;-54
2021/12/08 04:43:49;;;;;;;1.27;0.57;;;;;;;5.26;93.94;97053.59;5071725;28;20261;-51
2021/12/08 04:46:25;;;;;;;0.70;0.40;;;;;;;5.28;91.17;97061.22;5071708;28;20649;-52
2021/12/08 04:49:12;;;;;;;1.83;0.40;;;;;;;5.33;89.59;97048.59;5071736;28;20211;-52
2021/12/08 04:51:49;;;;;;;0.87;0.30;;;;;;;5.32;89.06;97052.16;5070861;28;20207;-54
2021/12/08 05:03:02;;;;;;;1.37;0.57;;;;;;;5.27;90.54;97026.75;5069890;28;20340;-55
2021/12/08 05:05:49;;;;;;;2.63;0.70;;;;;;;5.22;92.01;97023.81;5069154;28;20205;-53
2021/12/08 05:08:19;;;;;;;2.33;0.43;;;;;;;5.27;88.83;97026.75;5070898;28;20217;-55
2021/12/08 05:10:48;;;;;;;1.83;0.50;;;;;;;5.30;88.69;97041.16;5069850;28;20234;-53
2021/12/08 05:13:17;;;;;;;0.93;0.40;;;;;;;5.31;89.50;97027.25;5064021;28;20194;-55
2021/12/08 05:15:49;;;;;;;1.20;0.40;;;;;;;5.28;89.66;97019.81;5069068;28;20194;-56
2021/12/08 05:18:19;;;;;;;1.10;0.40;;;;;;;5.24;89.60;97014.13;5070363;28;20195;-53
2021/12/08 05:20:51;;;;;;;0.90;0.20;;;;;;;5.26;88.03;97004.44;5070303;28;20207;-52
2021/12/08 05:23:23;;;;;;;2.33;0.30;;;;;;;5.22;87.85;97010.09;5071109;28;20663;-53
2021/12/08 05:25:52;;;;;;;9.37;6.37;;;;;;;5.19;88.39;97007.81;5070635;28;20187;-54
2021/12/08 05:28:21;;;;;;;3.70;2.53;;;;;;;5.13;88.96;97007.47;5070916;28;20674;-53
2021/12/08 05:30:54;;;;;;;76.60;39.27;;;;;;;5.07;89.22;97012.44;5068161;28;20305;-55
2021/12/08 05:33:22;;;;;;;207.13;107.00;;;;;;;4.99;90.12;97021.78;5070743;28;20863;-54
2021/12/08 05:35:49;;;;;;;62.67;34.60;;;;;;;4.91;90.13;97018.38;5070425;28;20273;-55
2021/12/08 05:38:17;;;;;;;20.03;10.30;;;;;;;4.83;91.38;97035.47;5070286;28;20278;-55
2021/12/08 05:40:48;;;;;;;11.57;6.67;;;;;;;4.78;92.73;97029.13;5069802;28;20205;-53
2021/12/08 05:43:16;;;;;;;5.20;3.27;;;;;;;4.75;93.59;97032.84;5070528;28;20283;-53
2021/12/08 05:45:43;;;;;;;4.53;1.87;;;;;;;4.75;93.84;97043.16;5069964;28;20183;-55
2021/12/08 05:48:13;;;;;;;13.57;4.90;;;;;;;4.83;91.53;97057.91;5070278;28;20186;-55
2021/12/08 05:50:53;;;;;;;9.53;5.80;;;;;;;4.88;90.32;97071.19;5068581;28;20766;-53
2021/12/08 05:53:21;;;;;;;2.53;0.80;;;;;;;5.11;83.90;97083.59;5070340;28;20224;-54
2021/12/08 05:55:48;;;;;;;3.53;1.93;;;;;;;5.27;82.58;97075.13;5070150;28;20230;-55
2021/12/08 05:58:16;;;;;;;14.63;9.67;;;;;;;5.27;83.41;97055.22;5070449;28;20187;-52
2021/12/08 06:00:47;;;;;;;8.33;5.13;;;;;;;5.26;84.48;97043.25;5053164;28;20223;-53
2021/12/08 06:03:17;;;;;;;2.93;1.30;;;;;;;5.25;85.88;97039.03;5050102;28;20562;-55
2021/12/08 06:05:46;;;;;;;1.60;0.90;;;;;;;5.22;85.18;97038.56;5050593;28;20626;-54
2021/12/08 06:08:14;;;;;;;2.67;1.10;;;;;;;5.24;84.25;97045.19;5049580;28;20183;-55
2021/12/08 06:10:41;;;;;;;1.90;0.70;;;;;;;5.22;90.31;97041.13;5049485;28;20209;-55
2021/12/08 06:13:11;;;;;;;3.00;1.60;;;;;;;5.12;91.22;97042.06;5049570;28;20195;-54
2021/12/08 06:15:40;;;;;;;6.03;3.27;;;;;;;5.06;90.74;97053.03;5053221;28;20696;-54
2021/12/08 06:18:07;;;;;;;6.90;2.77;;;;;;;5.02;90.64;97054.31;5068162;28;20710;-56
2021/12/08 06:20:36;;;;;;;1.63;1.00;;;;;;;4.99;90.30;97037.31;5068665;28;20263;-55
2021/12/08 06:23:05;;;;;;;3.43;0.97;;;;;;;5.00;90.51;97032.97;5069389;28;20210;-55
2021/12/08 06:25:32;;;;;;;2.57;1.50;;;;;;;4.99;90.83;97031.34;5070017;28;20191;-55
2021/12/08 06:27:58;;;;;;;1.77;0.80;;;;;;;5.00;89.39;97035.56;5070085;28;20187;-55
2021/12/08 06:30:29;;;;;;;11.83;6.90;;;;;;;5.08;90.64;97043.34;5068726;28;20292;-55
2021/12/08 06:32:55;;;;;;;8.50;4.80;;;;;;;4.99;93.46;97052.03;5070025;28;20213;-52
2021/12/08 06:35:28;;;;;;;4.03;2.90;;;;;;;4.96;92.56;97047.16;5069804;28;20551;-54
2021/12/08 06:37:59;;;;;;;3.53;1.20;;;;;;;5.00;90.52;97074.34;5069361;28;20190;-55
2021/12/08 06:40:30;;;;;;;2.13;0.80;;;;;;;5.20;87.26;97079.28;5068865;28;20699;-54
2021/12/08 06:43:01;;;;;;;14.87;9.23;;;;;;;5.16;89.71;97084.78;5064778;28;20257;-55
2021/12/08 06:45:34;;;;;;;8.13;3.50;;;;;;;5.09;92.00;97086.34;5049507;28;20271;-53
2021/12/08 06:48:05;;;;;;;2.87;1.10;;;;;;;5.16;89.82;97078.78;5054325;28;20261;-54
2021/12/08 06:50:36;;;;;;;1.90;1.00;;;;;;;5.20;87.98;97084.47;5065643;28;20310;-55
2021/12/08 06:53:04;;;;;;;1.93;0.90;;;;;;;5.27;87.74;97075.91;5054303;28;20183;-52
2021/12/08 06:55:35;;;;;;;3.40;1.00;;;;;;;5.42;84.75;97073.53;5050592;28;20195;-56
2021/12/08 06:58:08;;;;;;;3.53;1.20;;;;;;;5.41;85.08;97076.28;5050551;28;20191;-56
2021/12/08 07:00:49;;;;;;;2.27;0.60;;;;;;;5.43;84.90;97074.34;5049387;28;20696;-56
2021/12/08 07:03:33;;;;;;;2.47;0.70;;;;;;;5.39;85.02;97066.09;5061753;28;20252;-53
2021/12/08 07:06:08;;;;;;;3.37;1.03;;;;;;;5.39;84.58;97053.13;5067468;28;20208;-55
2021/12/08 07:08:47;;;;;;;3.37;0.60;;;;;;;5.39;84.48;97052.34;5069895;28;20190;-54
2021/12/08 07:11:18;;;;;;;1.93;0.90;;;;;;;5.33;86.39;97048.59;5069612;28;20238;-56
2021/12/08 07:13:45;;;;;;;2.43;0.70;;;;;;;5.28;85.81;97048.28;5070226;28;20270;-54
2021/12/08 07:16:17;;;;;;;1.47;1.00;;;;;;;5.20;86.83;97043.88;5060403;28;20197;-56
2021/12/08 07:18:53;;;;;;;2.97;1.30;;;;;;;5.14;87.88;97052.25;5070263;28;20842;-56
2021/12/08 07:21:23;;;;;;;2.60;0.80;;;;;;;5.10;88.09;97048.34;5069738;28;20211;-56
2021/12/08 07:23:55;;;;;;;1.60;0.60;;;;;;;5.07;88.64;97041.72;5070000;28;20189;-56
2021/12/08 07:26:25;;;;;;;4.67;0.87;;;;;;;5.04;89.43;97042.03;5070285;28;20191;-53
2021/12/08 07:28:56;;;;;;;1.60;0.60;;;;;;;4.98;90.05;97022.75;5070160;28;20190;-54
2021/12/08 07:31:26;;;;;;;0.50;0.40;;;;;;;4.95;90.85;97036.00;5070246;28;20203;-53
2021/12/08 07:33:54;;;;;;;1.10;0.50;;;;;;;4.93;92.30;97040.50;5074301;28;20573;-56
2021/12/08 07:36:24;;;;;;;1.90;0.70;;;;;;;4.91;92.04;97039.84;5073805;28;20266;-56
2021/12/08 07:38:55;;;;;;;4.93;1.07;;;;;;;4.92;91.49;97045.84;5073011;28;20270;-56
2021/12/08 07:41:28;;;;;;;5.03;1.43;;;;;;;4.95;92.12;97046.34;5073043;28;20369;-56
2021/12/08 07:43:57;;;;;;;2.67;0.90;;;;;;;4.95;92.05;97056.69;5072719;28;20430;-54
2021/12/08 07:46:28;;;;;;;4.30;1.80;;;;;;;4.97;92.44;97051.38;5073484;28;20659;-54
2021/12/08 07:48:59;;;;;;;6.67;3.53;;;;;;;5.00;93.17;97053.66;5073241;28;20212;-55
2021/12/08 07:51:29;;;;;;;5.40;2.70;;;;;;;5.03;93.04;97050.75;5072635;28;20242;-54
2021/12/08 07:54:00;;;;;;;4.23;1.00;;;;;;;5.02;92.21;97051.72;5073644;28;20708;-54
2021/12/08 07:56:28;;;;;;;3.47;2.10;;;;;;;5.08;92.61;97069.22;5073483;28;20183;-56
2021/12/08 07:59:00;;;;;;;8.63;5.90;;;;;;;5.11;92.82;97068.91;5072403;28;20261;-55
2021/12/08 08:01:30;;;;;;;4.33;2.70;;;;;;;5.09;93.72;97057.91;5063829;28;20211;-53
2021/12/08 08:03:57;;;;;;;2.90;2.10;;;;;;;5.09;93.84;97080.34;5073544;28;20191;-53
2021/12/08 08:06:28;;;;;;;22.83;11.47;;;;;;;5.09;94.78;97078.59;5073233;28;20532;-52
2021/12/08 08:08:55;;;;;;;11.67;7.23;;;;;;;5.09;95.01;97080.34;5073122;28;20189;-51
2021/12/08 08:11:29;;;;;;;8.93;4.83;;;;;;;5.07;94.59;97079.69;5072241;28;20599;-55
2021/12/08 08:13:57;;;;;;;8.87;3.80;;;;;;;5.11;94.31;97078.41;5072853;28;20214;-53
2021/12/08 08:16:27;;;;;;;20.93;13.50;;;;;;;5.13;93.60;97079.91;5064495;28;20200;-55
2021/12/08 08:19:02;;;;;;;8.10;4.93;;;;;;;5.19;92.65;97099.16;5072412;28;20222;-52
2021/12/08 08:21:31;;;;;;;13.20;5.10;;;;;;;5.21;90.87;97086.09;5072031;28;20210;-53
2021/12/08 08:24:00;;;;;;;5.00;2.73;;;;;;;5.28;90.65;97089.66;5073142;28;20200;-53
2021/12/08 08:26:31;;;;;;;3.63;1.20;;;;;;;5.33;89.98;97074.47;5072888;28;20218;-54
2021/12/08 08:28:59;;;;;;;2.77;0.80;;;;;;;5.37;88.65;97075.78;5072515;28;20309;-55
2021/12/08 08:31:30;;;;;;;1.90;0.70;;;;;;;5.44;88.32;97075.97;5072083;28;20214;-54
2021/12/08 08:33:58;;;;;;;6.20;2.50;;;;;;;5.46;89.08;97053.34;5072955;28;20713;-53
2021/12/08 08:36:28;;;;;;;6.67;3.77;;;;;;;5.47;88.66;97055.75;5072457;28;20675;-54
2021/12/08 08:39:02;;;;;;;3.23;1.37;;;;;;;5.43;88.23;97051.06;5072592;28;20191;-52
2021/12/08 08:41:36;;;;;;;25.97;15.50;;;;;;;5.42;90.35;97070.94;5071897;28;20232;-52
2021/12/08 08:44:06;;;;;;;24.07;11.63;;;;;;;5.41;91.53;97087.44;5071311;28;20208;-55
2021/12/08 08:46:38;;;;;;;17.57;8.50;;;;;;;5.36;92.00;97089.69;5072751;28;20240;-54
2021/12/08 08:49:09;;;;;;;14.10;6.93;;;;;;;5.37;91.83;97099.06;5072284;28;20194;-54
2021/12/08 08:51:40;;;;;;;30.93;16.37;;;;;;;5.36;92.16;97114.75;5071208;28;20207;-55
2021/12/08 08:54:10;;;;;;;29.33;17.47;;;;;;;5.37;92.11;97119.75;5072507;28;20202;-53
2021/12/08 08:56:41;;;;;;;18.47;10.77;;;;;;;5.38;90.69;97118.00;5071240;28;20248;-54
2021/12/08 08:59:13;;;;;;;14.13;7.60;;;;;;;5.50;89.79;97134.06;5070133;28;20873;-55
2021/12/08 09:01:44;;;;;;;7.20;3.67;;;;;;;5.54;90.30;97140.53;5051537;28;20214;-55
2021/12/08 09:04:15;;;;;;;12.80;5.37;;;;;;;5.56;89.41;97141.19;5071031;28;20269;-55
2021/12/08 09:06:45;;;;;;;4.73;2.90;;;;;;;5.61;88.70;97144.13;5063710;28;20210;-55
2021/12/08 09:09:15;;;;;;;9.00;4.40;;;;;;;5.66;86.48;97139.31;5072334;28;20191;-55
2021/12/08 09:11:50;;;;;;;10.50;2.43;;;;;;;5.72;85.58;97143.84;5071342;28;20206;-53
2021/12/08 09:14:21;;;;;;;7.47;3.10;;;;;;;5.83;83.21;97141.94;5071229;28;20200;-56
2021/12/08 09:16:53;;;;;;;4.93;2.00;;;;;;;5.84;82.60;97140.97;5062959;28;20682;-52
2021/12/08 09:19:24;;;;;;;9.33;2.27;;;;;;;5.82;82.53;97137.75;5054106;28;20218;-55
2021/12/08 09:22:01;;;;;;;2.75;0.75;;;;;;;5.99;78.29;97142.00;5050465;28;20222;-54
2021/12/08 09:24:36;;;;;;;4.00;1.30;;;;;;;5.93;80.46;97147.81;5051964;28;20403;-55
2021/12/08 09:27:08;;;;;;;3.13;1.13;;;;;;;5.99;80.32;97141.16;5051802;28;20872;-52
2021/12/08 09:29:42;;;;;;;4.87;1.53;;;;;;;5.99;81.89;97136.81;5050613;28;20198;-56
2021/12/08 09:32:13;;;;;;;3.53;1.33;;;;;;;6.01;81.65;97123.72;5052111;28;20200;-54
2021/12/08 09:34:45;;;;;;;4.40;1.40;;;;;;;6.03;81.56;97132.97;5054463;28;20179;-55
2021/12/08 09:37:19;;;;;;;3.27;1.00;;;;;;;6.05;80.60;97123.25;5061020;28;20192;-54
2021/12/08 09:39:48;;;;;;;4.73;1.53;;;;;;;6.08;82.48;97118.72;5059738;28;20180;-52
2021/12/08 09:42:21;;;;;;;6.03;2.63;;;;;;;6.13;82.12;97119.06;5060417;28;20183;-52
2021/12/08 09:44:52;;;;;;;7.33;2.90;;;;;;;6.12;82.09;97122.63;5060718;28;20183;-55
2021/12/08 09:47:20;;;;;;;3.60;1.17;;;;;;;6.20;80.05;97130.41;5060033;28;20556;-52
2021/12/08 09:49:49;;;;;;;3.13;0.97;;;;;;;6.33;83.20;97132.53;5064545;28;20483;-55
2021/12/08 09:52:19;;;;;;;3.07;0.90;;;;;;;7.14;79.87;97135.22;5070682;28;20197;-52
2021/12/08 09:54:46;;;;;;;4.13;0.83;;;;;;;7.17;75.65;97127.13;5068909;28;20182;-52
2021/12/08 09:57:15;;;;;;;2.13;0.83;;;;;;;7.01;77.55;97127.16;5070864;28;20277;-55
2021/12/08 09:59:47;;;;;;;4.77;0.97;;;;;;;6.87;77.24;97131.22;5064102;28;20183;-55
2021/12/08 10:02:24;;;;;;;1.40;0.80;;;;;;;6.78;78.19;97128.66;5050833;28;20183;-53
2021/12/08 10:04:50;;;;;;;3.10;1.00;;;;;;;6.68;79.30;97127.19;5060332;28;20183;-53
2021/12/08 10:07:19;;;;;;;3.97;1.20;;;;;;;6.54;79.43;97124.25;5059950;28;20186;-53
2021/12/08 10:09:48;;;;;;;2.67;1.00;;;;;;;6.53;80.16;97112.28;5059310;28;20266;-54
2021/12/08 10:12:15;;;;;;;2.63;1.70;;;;;;;6.54;81.22;97116.47;5058044;28;20297;-55
2021/12/08 10:14:46;;;;;;;31.20;15.73;;;;;;;6.50;80.30;97107.41;5061432;28;20185;-55
2021/12/08 10:17:14;;;;;;;38.93;18.00;;;;;;;6.48;80.72;97097.22;5060788;28;20206;-55
2021/12/08 10:19:41;;;;;;;31.90;14.67;;;;;;;6.51;80.67;97093.47;5061328;28;20678;-52
2021/12/08 10:22:18;;;;;;;4.67;2.33;;;;;;;6.43;79.49;97093.47;5059429;28;20271;-53
2021/12/08 10:25:03;;;;;;;7.97;1.73;;;;;;;6.50;80.15;97089.25;5059631;28;20258;-51
2021/12/08 10:27:30;;;;;;;3.20;1.33;;;;;;;6.56;81.38;97091.19;5059793;28;20187;-52
2021/12/08 10:30:23;;;;;;;7.90;2.37;;;;;;;6.53;82.45;97082.97;5059217;28;20202;-55
2021/12/08 10:32:53;;;;;;;8.37;2.90;;;;;;;6.48;84.05;97079.06;5060222;28;20645;-54
2021/12/08 10:35:47;;;;;;;7.03;1.77;;;;;;;6.53;83.31;97082.97;5058954;28;20670;-56
2021/12/08 10:38:16;;;;;;;15.53;3.83;;;;;;;6.51;83.38;97080.50;5060446;28;20195;-56
2021/12/08 10:41:01;;;;;;;8.20;4.23;;;;;;;6.53;83.52;97080.38;5058428;28;20211;-55
2021/12/08 10:43:29;;;;;;;12.93;5.10;;;;;;;6.64;83.56;97077.44;5058702;28;20443;-53
2021/12/08 10:46:03;;;;;;;9.27;4.70;;;;;;;6.60;84.78;97078.75;5060756;28;20187;-55
2021/12/08 10:48:36;;;;;;;13.90;7.50;;;;;;;6.58;85.64;97078.88;5061590;28;20194;-56
2021/12/08 10:56:36;;;;;;;9.87;4.73;;;;;;;6.63;83.36;97078.41;5058772;28;20196;-55
2021/12/08 10:59:03;;;;;;;13.73;5.50;;;;;;;6.69;84.33;97071.75;5059768;28;20186;-52
2021/12/08 11:01:31;;;;;;;17.60;8.20;;;;;;;6.69;84.30;97075.16;5058664;28;20282;-52
2021/12/08 11:04:01;;;;;;;14.33;5.93;;;;;;;6.73;82.84;97073.88;5057918;28;20722;-55
2021/12/08 11:06:31;;;;;;;24.07;10.20;;;;;;;6.76;81.30;97070.94;5059996;28;20639;-55
2021/12/08 11:08:58;;;;;;;22.07;9.00;;;;;;;6.77;80.27;97067.38;5066137;28;20213;-53
2021/12/08 11:11:28;;;;;;;53.93;21.07;;;;;;;6.75;79.23;97073.69;5056928;28;20203;-55
2021/12/08 11:13:58;;;;;;;8.00;3.03;;;;;;;6.69;78.46;97076.94;5062744;28;20269;-53
2021/12/08 11:16:27;;;;;;;10.73;7.73;;;;;;;6.73;78.28;97071.28;5063377;28;20186;-54
2021/12/08 11:19:01;;;;;;;10.37;7.53;;;;;;;6.80;76.70;97076.59;5060718;28;20706;-55
2021/12/08 11:21:35;;;;;;;6.70;3.20;;;;;;;6.76;75.32;97085.69;5069998;28;20268;-55
2021/12/08 11:24:03;;;;;;;7.40;1.30;;;;;;;6.75;76.57;97079.69;5074085;28;20211;-54
2021/12/08 11:26:36;;;;;;;5.53;1.57;;;;;;;6.85;75.81;97084.69;5073279;28;20183;-55
2021/12/08 11:29:06;;;;;;;11.30;3.73;;;;;;;6.87;76.45;97080.16;5071305;28;20187;-56
2021/12/08 11:31:36;;;;;;;8.37;2.40;;;;;;;6.82;77.06;97079.03;5071993;28;20611;-53
2021/12/08 11:34:10;;;;;;;4.10;1.57;;;;;;;6.83;77.40;97089.25;5073551;28;20269;-56
2021/12/08 11:36:39;;;;;;;4.70;1.20;;;;;;;6.80;77.83;97081.78;5074400;28;20452;-54
2021/12/08 11:39:10;;;;;;;4.27;1.43;;;;;;;6.83;74.79;97073.69;5074071;28;20183;-52
2021/12/08 11:41:39;;;;;;;5.47;1.30;;;;;;;6.82;76.82;97074.66;5072746;28;20271;-54
2021/12/08 11:44:09;;;;;;;7.73;1.27;;;;;;;6.84;74.90;97077.88;5073575;28;20234;-55
2021/12/08 11:46:44;;;;;;;6.03;1.40;;;;;;;6.77;77.13;97074.34;5073636;28;20175;-53
2021/12/08 11:49:12;;;;;;;4.40;1.13;;;;;;;6.82;74.02;97069.47;5073534;28;20186;-54
2021/12/08 11:51:56;;;;;;;1.87;1.20;;;;;;;6.79;75.51;97056.81;5072860;28;20207;-52
2021/12/08 11:54:29;;;;;;;5.23;1.40;;;;;;;6.75;78.11;97063.31;5072758;28;20213;-55
2021/12/08 11:57:03;;;;;;;9.73;1.80;;;;;;;6.83;77.61;97070.28;5073067;28;20187;-55
2021/12/08 11:59:31;;;;;;;2.80;1.20;;;;;;;6.74;77.82;97067.72;5068973;28;20644;-55
2021/12/08 12:01:58;;;;;;;5.07;1.23;;;;;;;6.76;78.24;97065.75;5053233;28;20184;-55
2021/12/08 12:04:26;;;;;;;5.33;1.60;;;;;;;6.83;79.53;97071.09;5052735;28;20214;-54
2021/12/08 12:06:53;;;;;;;3.23;1.57;;;;;;;6.92;77.79;97062.31;5053387;28;20187;-54
2021/12/08 12:09:20;;;;;;;4.30;1.73;;;;;;;6.78;76.83;97061.22;5053185;28;20536;-54
2021/12/08 12:11:48;;;;;;;4.30;1.37;;;;;;;6.79;77.40;97062.00;5052486;28;20203;-55
2021/12/08 12:14:15;;;;;;;2.63;1.43;;;;;;;6.75;79.04;97061.53;5053063;28;20187;-53
2021/12/08 12:16:42;;;;;;;3.70;1.50;;;;;;;6.73;78.99;97063.50;5051319;28;20187;-55
2021/12/08 12:19:14;;;;;;;4.33;1.40;;;;;;;6.86;76.43;97067.38;5051456;28;20211;-55
2021/12/08 12:21:57;;;;;;;3.60;1.23;;;;;;;6.77;76.24;97063.97;5057169;28;20734;-55
2021/12/08 12:25:02;;;;;;;5.73;1.10;;;;;;;6.82;76.59;97069.47;5052807;28;20257;-53